Willow Springs, California
Current Conditions -  °F | °C
As of 8:56 AM on Sunday 23 Nov 2014 (Local Time) from KWJF Reporting Station
Clear Clear  
Wind Chill: 51°   Ceiling: Unl
Heat Index: 51°   Visibility: 10mi
Dew Point: 38°   Wind: 6mph
Humidity: 61%   Direction: 80°E
Pressure: 30.29"   Gusts: NA
Location:  34.8931°N, 118.353°W
Report Text: KWJF 231656Z 08005KT 10SM CLR 11/03 A3029 RMK AO2 SLP259 T01060033
Loading
Personal Weather Stations






























Interactive Weather Map New forecast layout! Learn more

10-Day Weather Forecast

Advertisements
Track Severe Weather on mobile